Time;durP1;ratioP1;P1;durP2;ratioP2;P2;SDS_P1;SDS_P2;PMS_P1;PMS_P2;Temp;Humidity;BMP_temperature;BMP_pressure;BME280_temperature;BME280_humidity;BME280_pressure;Samples;Min_cycle;Max_cycle;Signal;HPM_P1;HPM_P2
2023/08/14 02:59:40;;;;;;;8.68;5.90;;;19.10;99.90;;;;;;6224747;22;20522;-78
2023/08/14 03:02:07;;;;;;;8.00;5.68;;;19.00;99.90;;;;;;6216578;23;20773;-78
2023/08/14 03:04:35;;;;;;;9.60;6.32;;;19.00;99.90;;;;;;6193916;23;20072;-79
2023/08/14 03:07:03;;;;;;;9.45;5.43;;;19.00;99.90;;;;;;6217643;23;20020;-79
2023/08/14 03:09:33;;;;;;;9.07;6.50;;;19.00;99.90;;;;;;6219491;23;20012;-79
2023/08/14 03:12:04;;;;;;;9.18;6.50;;;18.90;99.90;;;;;;6193015;23;20016;-79
2023/08/14 03:14:31;;;;;;;9.98;6.72;;;18.80;99.90;;;;;;6162514;23;20024;-79
2023/08/14 03:16:59;;;;;;;11.25;7.18;;;19.10;99.90;;;;;;6187468;23;20076;-79
2023/08/14 03:19:26;;;;;;;8.75;6.05;;;18.90;99.90;;;;;;6192681;23;20047;-79
2023/08/14 03:21:54;;;;;;;9.40;6.28;;;18.80;99.90;;;;;;6195819;23;20027;-79
2023/08/14 03:24:23;;;;;;;9.15;6.60;;;18.80;99.90;;;;;;6194548;23;20095;-79
2023/08/14 03:26:50;;;;;;;8.98;6.50;;;19.00;99.90;;;;;;6219353;23;20039;-79
2023/08/14 03:29:17;;;;;;;9.48;6.40;;;18.90;99.90;;;;;;6218528;23;20343;-79
2023/08/14 03:31:46;;;;;;;8.10;6.38;;;18.70;99.90;;;;;;6219365;23;20038;-79
2023/08/14 03:34:16;;;;;;;9.73;6.63;;;18.70;99.90;;;;;;6194713;23;20016;-79
2023/08/14 03:36:45;;;;;;;9.45;6.63;;;18.80;99.90;;;;;;6193964;23;20107;-79
2023/08/14 03:39:13;;;;;;;9.52;6.15;;;18.60;99.90;;;;;;6218886;23;20032;-79
2023/08/14 03:41:40;;;;;;;10.75;6.25;;;18.70;99.90;;;;;;6194410;23;20020;-79
2023/08/14 03:44:07;;;;;;;10.00;6.60;;;18.80;99.90;;;;;;6219118;23;20584;-79
2023/08/14 03:46:35;;;;;;;8.40;6.65;;;18.70;99.90;;;;;;6195147;23;20070;-79
2023/08/14 03:49:05;;;;;;;13.25;6.78;;;18.60;99.90;;;;;;6221443;23;20356;-79
2023/08/14 03:51:32;;;;;;;7.93;6.25;;;18.60;99.90;;;;;;6196245;23;20012;-79
2023/08/14 03:53:59;;;;;;;9.18;6.60;;;18.70;99.90;;;;;;6194968;23;20047;-79
2023/08/14 03:56:27;;;;;;;8.88;5.85;;;18.70;99.90;;;;;;6219338;23;20103;-79
2023/08/14 03:58:56;;;;;;;9.63;6.80;;;18.50;99.90;;;;;;6220360;23;20020;-79
2023/08/14 04:01:23;;;;;;;10.20;6.53;;;18.70;99.90;;;;;;6219413;23;20027;-78
2023/08/14 04:03:52;;;;;;;8.80;6.57;;;18.40;99.90;;;;;;6218899;23;20024;-78
2023/08/14 04:06:20;;;;;;;12.98;6.45;;;18.80;99.90;;;;;;6219938;23;20012;-79
2023/08/14 04:08:47;;;;;;;9.88;6.55;;;18.60;99.90;;;;;;6194273;23;20842;-79
2023/08/14 04:11:15;;;;;;;7.88;6.20;;;18.60;99.90;;;;;;6219383;23;20020;-79
2023/08/14 04:13:42;;;;;;;13.48;6.80;;;18.60;99.90;;;;;;6219447;23;20361;-80
2023/08/14 04:16:09;;;;;;;9.77;6.72;;;18.70;99.90;;;;;;6220861;23;20024;-79
2023/08/14 04:18:37;;;;;;;9.13;6.13;;;18.60;99.90;;;;;;6197283;23;20023;-79
2023/08/14 04:21:05;;;;;;;9.63;6.68;;;18.50;99.90;;;;;;6194858;23;20020;-79
2023/08/14 04:23:32;;;;;;;10.35;6.55;;;18.70;99.90;;;;;;6194149;23;20016;-79
2023/08/14 04:26:05;;;;;;;11.25;6.30;;;18.80;99.90;;;;;;6194233;23;20027;-79
2023/08/14 04:28:35;;;;;;;12.30;6.70;;;18.70;99.90;;;;;;6219681;23;20016;-79
2023/08/14 04:31:02;;;;;;;8.68;6.55;;;18.70;99.90;;;;;;6193733;23;20024;-79
2023/08/14 04:33:31;;;;;;;7.75;6.65;;;18.90;99.90;;;;;;6194736;23;20348;-79
2023/08/14 04:35:58;;;;;;;11.20;8.00;;;18.90;99.90;;;;;;6220094;23;20066;-79
2023/08/14 04:38:26;;;;;;;10.65;5.82;;;18.80;99.90;;;;;;6220279;23;20028;-79
2023/08/14 04:40:59;;;;;;;12.43;6.82;;;18.70;99.90;;;;;;6196074;23;20051;-79
2023/08/14 04:43:44;;;;;;;10.02;6.13;;;18.90;99.90;;;;;;6220014;23;20016;-79
2023/08/14 04:46:27;;;;;;;8.80;6.65;;;19.00;99.90;;;;;;6195182;23;20047;-79
2023/08/14 04:48:57;;;;;;;11.60;6.40;;;18.90;99.90;;;;;;6221451;23;20098;-79
2023/08/14 04:51:25;;;;;;;10.20;5.93;;;18.90;99.90;;;;;;6195164;23;20020;-79
2023/08/14 04:53:58;;;;;;;9.25;6.40;;;18.90;99.90;;;;;;6194939;23;20075;-79
2023/08/14 04:56:26;;;;;;;8.60;6.28;;;18.90;99.90;;;;;;6194191;23;20059;-79
2023/08/14 04:58:54;;;;;;;8.98;5.88;;;19.10;99.90;;;;;;6192625;23;20042;-79
2023/08/14 05:01:25;;;;;;;7.75;6.32;;;19.30;99.90;;;;;;6218291;23;20035;-79
2023/08/14 05:03:56;;;;;;;9.55;6.35;;;19.30;99.90;;;;;;6194791;23;20044;-79
2023/08/14 05:06:26;;;;;;;7.47;6.45;;;19.30;99.90;;;;;;6218790;23;20822;-79
2023/08/14 05:08:57;;;;;;;7.05;5.80;;;19.40;99.90;;;;;;6219781;23;20020;-79
2023/08/14 05:11:30;;;;;;;11.63;6.07;;;19.50;99.90;;;;;;6192464;23;20044;-79
2023/08/14 05:13:59;;;;;;;9.05;5.38;;;19.60;99.90;;;;;;6217334;23;20044;-79
2023/08/14 05:16:27;;;;;;;11.52;7.55;;;19.60;99.90;;;;;;6194066;23;20058;-79
2023/08/14 05:18:57;;;;;;;10.45;7.45;;;19.70;99.90;;;;;;6218455;23;20668;-79
2023/08/14 05:21:26;;;;;;;10.70;6.90;;;19.80;99.90;;;;;;6194597;23;20136;-79
2023/08/14 05:23:53;;;;;;;8.93;6.43;;;19.70;99.90;;;;;;6193502;23;20067;-79
2023/08/14 05:26:21;;;;;;;8.07;6.00;;;19.90;99.90;;;;;;6194203;23;20024;-79
2023/08/14 05:28:49;;;;;;;7.60;6.22;;;19.90;99.90;;;;;;6221829;23;20047;-79
2023/08/14 05:31:17;;;;;;;6.93;5.28;;;20.00;99.90;;;;;;6196892;23;20016;-79
2023/08/14 05:33:44;;;;;;;8.85;5.85;;;20.00;99.90;;;;;;6254868;23;20016;-79
2023/08/14 05:36:12;;;;;;;6.68;5.10;;;20.10;99.90;;;;;;6211137;23;20028;-79
2023/08/14 05:38:40;;;;;;;7.88;5.57;;;20.10;99.90;;;;;;6265509;23;20012;-79
2023/08/14 05:44:07;;;;;;;6.88;5.10;;;20.40;99.90;;;;;;6283413;22;20027;-79
2023/08/14 05:46:35;;;;;;;7.60;5.15;;;20.40;99.90;;;;;;6261367;22;20023;-79
2023/08/14 05:49:03;;;;;;;7.53;4.72;;;20.90;99.90;;;;;;6237896;22;20020;-79
2023/08/14 05:51:34;;;;;;;6.03;4.97;;;20.60;99.90;;;;;;6256186;22;20029;-79
2023/08/14 05:54:05;;;;;;;10.20;5.18;;;20.70;99.90;;;;;;6230062;22;20123;-79
2023/08/14 05:56:34;;;;;;;7.32;5.20;;;20.90;99.90;;;;;;6222916;22;20027;-79
2023/08/14 05:59:01;;;;;;;6.15;4.50;;;20.80;99.90;;;;;;6252796;22;20046;-79
2023/08/14 06:01:29;;;;;;;8.77;5.25;;;21.10;99.90;;;;;;6248990;22;20439;-79
2023/08/14 06:03:56;;;;;;;9.05;4.63;;;21.10;99.90;;;;;;6263745;22;20022;-80
2023/08/14 06:06:44;;;;;;;8.98;5.20;;;21.30;99.90;;;;;;6212242;23;20206;-79
2023/08/14 06:09:11;;;;;;;7.65;4.90;;;21.60;99.90;;;;;;6171704;23;20108;-79
2023/08/14 06:11:38;;;;;;;7.65;4.85;;;21.60;99.90;;;;;;6194544;23;20017;-79
2023/08/14 06:14:06;;;;;;;10.70;4.65;;;21.70;99.90;;;;;;6226217;22;20027;-79
2023/08/14 06:19:36;;;;;;;5.00;4.18;;;22.10;99.90;;;;;;6255752;22;20784;-81
2023/08/14 06:22:05;;;;;;;7.95;4.00;;;22.20;99.00;;;;;;6241839;22;20019;-81
2023/08/14 06:25:17;;;;;;;6.72;4.20;;;22.40;99.00;;;;;;6258940;22;20898;-79
2023/08/14 06:27:44;;;;;;;7.00;4.15;;;22.50;99.90;;;;;;6209505;23;20024;-79
2023/08/14 06:30:11;;;;;;;4.35;3.13;;;22.70;97.70;;;;;;6205958;23;20001;-79
2023/08/14 06:32:39;;;;;;;5.72;3.65;;;22.80;96.50;;;;;;6227939;22;20024;-80
2023/08/14 06:35:09;;;;;;;5.50;3.83;;;22.90;95.80;;;;;;6211011;23;20020;-80
2023/08/14 06:37:37;;;;;;;6.45;3.58;;;23.10;96.10;;;;;;6229830;22;20018;-82
2023/08/14 06:40:05;;;;;;;7.20;3.50;;;23.20;95.00;;;;;;6230767;23;20105;-79
2023/08/14 06:42:38;;;;;;;3.17;2.70;;;23.30;94.30;;;;;;6227334;23;20043;-82
2023/08/14 06:46:01;;;;;;;6.13;3.10;;;23.40;93.80;;;;;;6159989;23;20031;-83
2023/08/14 06:48:30;;;;;;;5.57;3.30;;;23.60;94.80;;;;;;6111113;23;20033;-82
2023/08/14 06:50:59;;;;;;;4.95;3.47;;;23.70;93.40;;;;;;6099636;23;20022;-79
2023/08/14 06:53:50;;;;;;;4.68;3.20;;;23.70;92.80;;;;;;6123209;23;20482;-83
2023/08/14 06:57:02;;;;;;;4.45;3.33;;;23.80;93.80;;;;;;6011425;23;20062;-83
2023/08/14 06:59:37;;;;;;;3.42;2.67;;;24.10;93.20;;;;;;6029692;23;20126;-82
2023/08/14 07:02:04;;;;;;;2.88;2.38;;;24.20;91.60;;;;;;6056560;23;20490;-82
2023/08/14 07:04:32;;;;;;;4.85;2.65;;;24.30;91.20;;;;;;6055929;23;20489;-83
2023/08/14 07:06:59;;;;;;;4.10;2.50;;;24.40;90.40;;;;;;6060674;23;20023;-82
2023/08/14 07:09:26;;;;;;;4.78;3.40;;;24.60;90.90;;;;;;6057770;23;20026;-83
2023/08/14 07:11:53;;;;;;;3.92;3.15;;;24.80;94.00;;;;;;6031730;23;20878;-82
2023/08/14 07:14:20;;;;;;;4.45;2.03;;;24.90;91.90;;;;;;6034168;23;20087;-83
2023/08/14 07:16:48;;;;;;;3.65;2.60;;;25.00;90.70;;;;;;6075803;23;20442;-83
2023/08/14 07:19:17;;;;;;;4.88;2.78;;;25.00;87.90;;;;;;6088493;23;20393;-83
2023/08/14 07:21:45;;;;;;;5.22;3.03;;;25.20;89.50;;;;;;6063810;23;20023;-83
2023/08/14 07:24:14;;;;;;;4.05;2.80;;;25.30;90.20;;;;;;6117612;23;20465;-83
2023/08/14 07:26:42;;;;;;;5.15;2.97;;;25.40;90.60;;;;;;6119947;23;20058;-82
2023/08/14 07:29:10;;;;;;;3.95;2.00;;;25.50;91.00;;;;;;6183034;23;20016;-83
2023/08/14 07:31:37;;;;;;;4.45;2.63;;;25.40;85.90;;;;;;6210024;23;20016;-83
2023/08/14 07:34:04;;;;;;;6.78;2.92;;;25.60;84.80;;;;;;6185980;23;20028;-82
2023/08/14 07:36:32;;;;;;;3.53;1.85;;;25.70;84.10;;;;;;6210163;23;20350;-85
2023/08/14 07:39:01;;;;;;;5.28;2.22;;;25.80;86.40;;;;;;6208640;23;20020;-84
2023/08/14 07:41:28;;;;;;;5.55;2.00;;;25.80;85.50;;;;;;6210676;23;20024;-81
2023/08/14 07:43:55;;;;;;;3.63;1.98;;;25.90;85.60;;;;;;6235357;23;20048;-80
2023/08/14 07:46:23;;;;;;;2.75;1.90;;;25.90;83.50;;;;;;6185966;23;20467;-77
2023/08/14 07:48:50;;;;;;;3.92;1.77;;;26.00;85.00;;;;;;6210651;23;20024;-78
2023/08/14 07:51:20;;;;;;;4.15;2.17;;;26.10;83.20;;;;;;6210232;23;20020;-77
2023/08/14 07:53:48;;;;;;;5.68;2.38;;;26.20;81.90;;;;;;6228771;23;20022;-77
2023/08/14 07:56:15;;;;;;;3.85;2.00;;;26.20;81.70;;;;;;6183843;23;20877;-77
2023/08/14 07:58:42;;;;;;;7.45;2.53;;;26.20;82.10;;;;;;6234935;23;20119;-79
2023/08/14 08:01:09;;;;;;;9.43;2.92;;;26.20;79.80;;;;;;6209635;23;20024;-83
2023/08/14 08:03:37;;;;;;;4.20;2.20;;;26.30;80.80;;;;;;6185058;23;20031;-81
2023/08/14 08:06:04;;;;;;;9.10;2.22;;;26.40;80.30;;;;;;6179879;23;20028;-79
2023/08/14 08:08:32;;;;;;;7.43;2.88;;;26.30;79.80;;;;;;6209433;23;20452;-82
2023/08/14 08:10:59;;;;;;;5.70;1.90;;;26.40;81.40;;;;;;6211087;23;20107;-81
2023/08/14 08:13:27;;;;;;;4.00;2.25;;;26.60;81.40;;;;;;6209161;23;20044;-82
2023/08/14 08:15:54;;;;;;;2.78;2.17;;;26.60;80.50;;;;;;6211924;23;20138;-81
2023/08/14 08:18:21;;;;;;;2.90;2.00;;;26.70;77.70;;;;;;6211532;23;20024;-83
2023/08/14 08:20:48;;;;;;;3.38;2.88;;;26.70;80.60;;;;;;6209791;23;20028;-81
2023/08/14 08:23:16;;;;;;;5.85;2.47;;;26.80;81.20;;;;;;6210005;23;20422;-81
2023/08/14 08:25:43;;;;;;;4.80;2.30;;;26.80;80.60;;;;;;6210731;23;20023;-82
2023/08/14 08:28:10;;;;;;;2.83;1.70;;;26.90;80.20;;;;;;6183321;23;20706;-81
2023/08/14 08:30:37;;;;;;;5.07;2.60;;;26.90;80.60;;;;;;6209324;23;20042;-83
2023/08/14 08:33:04;;;;;;;3.88;2.22;;;27.00;82.30;;;;;;6206704;23;20051;-80
2023/08/14 08:35:32;;;;;;;2.42;2.22;;;27.00;80.30;;;;;;6209509;23;20020;-83
2023/08/14 08:37:59;;;;;;;2.47;2.10;;;27.10;80.50;;;;;;6209063;23;20439;-81
2023/08/14 08:40:27;;;;;;;2.17;1.98;;;27.00;80.30;;;;;;6209462;23;20399;-82
2023/08/14 08:42:55;;;;;;;3.17;1.45;;;27.10;81.40;;;;;;6206935;23;20020;-82
2023/08/14 08:45:28;;;;;;;3.33;2.42;;;27.20;77.30;;;;;;6184035;23;20082;-82
2023/08/14 08:47:59;;;;;;;3.03;1.55;;;27.30;79.50;;;;;;6205870;23;20063;-81
2023/08/14 08:50:28;;;;;;;2.22;1.75;;;27.30;78.40;;;;;;6210805;23;20471;-81
2023/08/14 08:52:57;;;;;;;3.53;2.00;;;27.30;78.50;;;;;;6207181;23;20023;-82
2023/08/14 08:55:24;;;;;;;4.28;2.00;;;27.30;79.20;;;;;;6208657;23;20101;-80
2023/08/14 08:57:54;;;;;;;2.85;2.22;;;27.30;77.90;;;;;;6206274;23;20024;-81
2023/08/14 09:00:22;;;;;;;5.53;2.03;;;27.30;78.90;;;;;;6209851;23;20090;-83
2023/08/14 09:02:52;;;;;;;3.05;2.00;;;27.30;80.30;;;;;;6207468;23;20054;-82
2023/08/14 09:05:20;;;;;;;1.65;1.45;;;27.40;81.00;;;;;;6210666;23;20023;-82
2023/08/14 09:07:47;;;;;;;2.33;1.67;;;27.50;78.70;;;;;;6204768;23;20078;-83
2023/08/14 09:10:15;;;;;;;3.50;2.17;;;27.40;76.30;;;;;;6209740;23;20055;-82
2023/08/14 09:12:43;;;;;;;8.10;2.50;;;27.50;76.10;;;;;;6206740;23;20333;-81
2023/08/14 09:15:10;;;;;;;3.17;1.90;;;27.50;76.60;;;;;;6184114;23;20444;-82
2023/08/14 09:17:37;;;;;;;5.93;1.90;;;27.60;76.90;;;;;;6184348;23;20035;-81
2023/08/14 09:20:06;;;;;;;2.40;1.35;;;27.50;74.40;;;;;;6211748;23;20456;-80
2023/08/14 09:22:45;;;;;;;3.03;2.30;;;27.50;73.80;;;;;;6197955;23;20408;-82
2023/08/14 09:25:13;;;;;;;3.35;1.90;;;27.70;75.70;;;;;;6230257;23;20506;-82
2023/08/14 09:27:41;;;;;;;2.53;1.60;;;27.80;75.80;;;;;;6236232;23;20047;-82
2023/08/14 09:30:12;;;;;;;4.03;1.60;;;27.70;74.50;;;;;;6236820;23;20016;-82
2023/08/14 09:32:40;;;;;;;2.80;1.80;;;27.80;74.90;;;;;;6185041;23;20035;-81
2023/08/14 09:35:08;;;;;;;2.60;1.40;;;27.80;73.90;;;;;;6208660;23;20023;-82
2023/08/14 09:37:35;;;;;;;2.75;1.70;;;27.80;72.30;;;;;;6207849;23;20086;-81
2023/08/14 09:40:15;;;;;;;2.38;1.88;;;27.80;73.70;;;;;;6208645;23;20046;-81
2023/08/14 09:42:43;;;;;;;1.85;1.70;;;27.90;73.00;;;;;;6208435;23;20024;-82
2023/08/14 09:45:24;;;;;;;2.97;1.50;;;27.80;71.30;;;;;;6210230;23;20035;-80
2023/08/14 09:47:51;;;;;;;2.10;1.63;;;27.90;73.50;;;;;;6185651;23;20048;-81
2023/08/14 09:50:21;;;;;;;1.50;1.40;;;27.90;73.60;;;;;;6206213;23;20020;-81
2023/08/14 09:52:48;;;;;;;2.00;1.60;;;27.90;71.90;;;;;;6209530;23;20024;-79
2023/08/14 09:55:16;;;;;;;2.00;1.50;;;27.90;71.80;;;;;;6179842;23;20080;-81
2023/08/14 09:57:44;;;;;;;3.15;1.60;;;27.70;71.10;;;;;;6180687;23;20736;-81
2023/08/14 10:00:12;;;;;;;2.92;1.80;;;27.80;73.00;;;;;;6208836;23;20020;-81
2023/08/14 10:02:44;;;;;;;2.45;1.40;;;27.90;70.70;;;;;;6204478;23;20061;-81
2023/08/14 10:05:12;;;;;;;3.05;1.63;;;28.00;72.20;;;;;;6208611;23;20398;-83
2023/08/14 10:07:40;;;;;;;3.65;1.67;;;28.10;73.10;;;;;;6208759;23;20020;-82
2023/08/14 10:10:08;;;;;;;3.17;1.88;;;28.10;72.30;;;;;;6183253;23;20102;-80
2023/08/14 10:12:51;;;;;;;2.83;1.48;;;28.10;72.60;;;;;;6208116;22;20022;-81
2023/08/14 10:15:25;;;;;;;10.43;2.63;;;28.10;73.40;;;;;;6207704;23;20277;-81
2023/08/14 10:18:04;;;;;;;1.95;1.75;;;28.10;73.50;;;;;;6185643;23;20043;-81
2023/08/14 10:20:34;;;;;;;2.85;1.45;;;28.10;72.80;;;;;;6159464;23;20028;-80
2023/08/14 10:23:02;;;;;;;4.10;2.00;;;28.20;72.50;;;;;;6209365;23;20479;-82
2023/08/14 10:25:30;;;;;;;4.47;1.85;;;28.20;72.50;;;;;;6209138;23;20478;-78
2023/08/14 10:28:00;;;;;;;2.78;1.60;;;28.20;72.90;;;;;;6209245;23;20363;-80
2023/08/14 10:30:29;;;;;;;1.75;1.65;;;28.20;71.50;;;;;;6207422;23;20023;-82
2023/08/14 10:32:57;;;;;;;2.20;1.60;;;28.10;70.90;;;;;;6210894;23;20020;-81
2023/08/14 10:35:25;;;;;;;4.07;1.90;;;28.10;72.60;;;;;;6210910;23;20031;-83
2023/08/14 10:37:55;;;;;;;3.03;1.90;;;28.30;73.80;;;;;;6186051;23;20096;-83
2023/08/14 10:40:55;;;;;;;4.30;1.67;;;28.30;72.40;;;;;;6207708;23;20463;-83
2023/08/14 10:43:28;;;;;;;2.28;1.60;;;28.40;73.20;;;;;;6236433;23;20050;-84
2023/08/14 10:45:58;;;;;;;3.47;1.63;;;28.40;73.00;;;;;;6182727;23;20038;-82
2023/08/14 10:48:26;;;;;;;1.98;1.75;;;28.30;72.40;;;;;;6182481;23;20028;-82
2023/08/14 10:51:00;;;;;;;3.33;1.85;;;28.30;71.80;;;;;;6180224;23;20359;-82
2023/08/14 10:53:30;;;;;;;2.33;1.42;;;28.30;71.30;;;;;;6209682;23;20094;-82
2023/08/14 10:55:59;;;;;;;3.95;2.00;;;28.30;72.10;;;;;;6208196;23;20049;-80
2023/08/14 10:58:33;;;;;;;2.72;2.03;;;28.40;72.30;;;;;;6209371;23;20021;-82
2023/08/14 11:01:11;;;;;;;2.65;1.60;;;28.40;71.60;;;;;;6208207;23;20024;-83
2023/08/14 11:03:56;;;;;;;1.92;1.42;;;28.30;70.90;;;;;;6201442;23;20035;-82
2023/08/14 11:06:27;;;;;;;8.02;2.03;;;28.30;70.90;;;;;;6207884;23;20020;-80
2023/08/14 11:09:17;;;;;;;3.40;2.35;;;28.30;71.40;;;;;;6209140;23;20032;-83
2023/08/14 11:11:48;;;;;;;5.90;1.65;;;28.30;70.40;;;;;;6208805;23;20101;-81
2023/08/14 11:14:15;;;;;;;2.03;1.50;;;28.30;70.10;;;;;;6181990;23;20024;-82
2023/08/14 11:16:49;;;;;;;2.72;1.63;;;28.30;72.40;;;;;;6208704;23;20289;-82
2023/08/14 11:19:18;;;;;;;2.03;1.65;;;28.40;70.70;;;;;;6183936;23;20059;-82
2023/08/14 11:21:48;;;;;;;1.95;1.75;;;28.50;71.20;;;;;;6183535;23;20472;-81
2023/08/14 11:24:16;;;;;;;2.63;1.90;;;28.50;70.20;;;;;;6208382;23;20028;-81
2023/08/14 11:26:43;;;;;;;1.80;1.70;;;28.60;71.30;;;;;;6201969;23;20048;-83
2023/08/14 11:29:11;;;;;;;2.30;1.85;;;28.50;71.80;;;;;;6199424;23;20044;-81
2023/08/14 11:31:43;;;;;;;4.00;1.75;;;28.50;70.60;;;;;;6175076;23;20023;-81
2023/08/14 11:34:16;;;;;;;2.08;1.60;;;28.60;70.70;;;;;;6201545;23;20047;-82
2023/08/14 11:36:54;;;;;;;3.63;1.40;;;28.60;68.80;;;;;;6149456;23;20020;-83
2023/08/14 11:39:25;;;;;;;3.30;1.83;;;28.60;68.10;;;;;;6202313;23;20024;-83
2023/08/14 11:41:52;;;;;;;2.33;1.20;;;28.60;69.60;;;;;;6177037;23;20339;-81
2023/08/14 11:44:20;;;;;;;2.83;2.30;;;28.60;70.40;;;;;;6202111;23;20056;-81
2023/08/14 11:46:49;;;;;;;4.07;1.73;;;28.60;68.60;;;;;;6177042;23;20043;-82
2023/08/14 11:49:17;;;;;;;1.77;1.67;;;28.70;69.60;;;;;;6178979;23;20819;-83
2023/08/14 11:51:46;;;;;;;2.30;1.60;;;28.70;68.60;;;;;;6202256;23;20432;-81
2023/08/14 11:54:14;;;;;;;2.38;1.90;;;28.70;68.30;;;;;;6201344;23;20039;-81
2023/08/14 11:56:42;;;;;;;3.88;2.10;;;28.60;68.60;;;;;;6177467;23;20051;-83
2023/08/14 11:59:10;;;;;;;2.33;1.80;;;28.60;68.00;;;;;;6208500;23;20016;-81
2023/08/14 12:01:38;;;;;;;2.05;1.75;;;28.60;69.50;;;;;;6209335;23;20020;-80
2023/08/14 12:04:06;;;;;;;2.22;1.40;;;28.70;68.40;;;;;;6206804;23;20296;-80
2023/08/14 12:06:34;;;;;;;3.33;1.80;;;28.70;68.10;;;;;;6183765;23;20028;-82
2023/08/14 12:09:07;;;;;;;2.13;1.75;;;28.80;67.40;;;;;;6204045;23;20394;-79
2023/08/14 12:11:37;;;;;;;2.00;1.63;;;28.80;67.30;;;;;;6198609;23;20030;-81
2023/08/14 12:14:06;;;;;;;2.53;1.30;;;28.90;67.50;;;;;;6209158;23;20012;-81
2023/08/14 12:16:38;;;;;;;2.13;1.55;;;28.80;67.40;;;;;;6206561;23;20031;-82
2023/08/14 12:19:09;;;;;;;2.95;1.60;;;28.70;67.20;;;;;;6236371;23;20020;-82
2023/08/14 12:21:36;;;;;;;3.03;1.80;;;28.80;67.40;;;;;;6185689;23;20024;-80
2023/08/14 12:24:04;;;;;;;4.50;1.73;;;28.80;67.70;;;;;;6210687;23;20459;-80
2023/08/14 12:26:44;;;;;;;2.13;1.83;;;28.80;68.60;;;;;;6183589;23;20308;-80
2023/08/14 12:29:13;;;;;;;1.70;1.30;;;28.90;69.50;;;;;;6207593;23;20456;-79
2023/08/14 12:31:40;;;;;;;4.20;2.17;;;29.00;68.60;;;;;;6207481;23;20051;-79
2023/08/14 12:34:07;;;;;;;3.20;1.42;;;29.00;69.20;;;;;;6207759;23;20028;-80
2023/08/14 12:36:35;;;;;;;2.00;1.33;;;29.00;68.80;;;;;;6207253;23;20081;-79
2023/08/14 12:39:02;;;;;;;2.28;1.67;;;28.90;67.10;;;;;;6206800;23;20024;-82
2023/08/14 12:41:30;;;;;;;3.35;1.50;;;28.90;67.70;;;;;;6208390;23;20105;-80
2023/08/14 12:43:57;;;;;;;3.10;1.60;;;28.90;67.70;;;;;;6208108;23;20038;-82
2023/08/14 12:46:24;;;;;;;2.22;1.70;;;29.00;68.40;;;;;;6180311;23;20030;-82
2023/08/14 12:48:51;;;;;;;3.38;2.00;;;29.00;67.30;;;;;;6207813;23;20073;-81
2023/08/14 12:51:18;;;;;;;3.00;2.05;;;28.90;66.50;;;;;;6177632;23;20016;-82
2023/08/14 12:53:48;;;;;;;2.85;1.70;;;28.90;67.30;;;;;;6183579;23;20075;-81
2023/08/14 12:56:15;;;;;;;2.78;1.90;;;28.90;67.10;;;;;;6180682;23;20043;-81
2023/08/14 12:58:45;;;;;;;3.42;1.60;;;29.00;67.60;;;;;;6206838;23;20020;-81
2023/08/14 13:01:16;;;;;;;3.40;2.15;;;29.10;67.30;;;;;;6207918;23;20344;-81
2023/08/14 13:03:43;;;;;;;2.92;2.13;;;29.00;68.10;;;;;;6206388;23;20062;-82
2023/08/14 13:06:10;;;;;;;3.75;1.73;;;29.10;67.10;;;;;;6235376;23;20027;-80
2023/08/14 13:08:38;;;;;;;2.40;1.35;;;29.20;67.50;;;;;;6184479;23;20325;-80
2023/08/14 13:11:05;;;;;;;3.63;1.45;;;29.20;66.50;;;;;;6208376;23;20016;-80
2023/08/14 13:13:32;;;;;;;1.42;1.25;;;29.20;66.50;;;;;;6208906;23;20027;-81
2023/08/14 13:16:01;;;;;;;2.33;1.85;;;29.30;65.70;;;;;;6180602;23;20046;-80
2023/08/14 13:18:28;;;;;;;2.00;1.45;;;29.30;65.50;;;;;;6235803;23;20024;-80
2023/08/14 13:20:56;;;;;;;2.28;1.60;;;29.30;66.70;;;;;;6206929;23;20055;-79
2023/08/14 13:23:23;;;;;;;3.30;1.58;;;29.30;65.30;;;;;;6183245;23;20024;-79
2023/08/14 13:25:50;;;;;;;3.15;1.55;;;29.30;66.90;;;;;;6207721;23;20116;-80
2023/08/14 13:28:17;;;;;;;2.83;1.40;;;29.20;66.20;;;;;;6179650;23;20020;-81
2023/08/14 13:30:45;;;;;;;2.58;1.52;;;29.20;67.00;;;;;;6181876;23;20488;-80
2023/08/14 13:33:12;;;;;;;3.00;1.95;;;29.20;66.30;;;;;;6206109;23;20447;-81
2023/08/14 13:35:40;;;;;;;4.03;2.20;;;29.10;66.60;;;;;;6181409;23;20016;-81
2023/08/14 13:38:07;;;;;;;3.78;2.00;;;29.10;67.20;;;;;;6180539;23;20352;-81
2023/08/14 13:40:35;;;;;;;3.50;1.73;;;29.30;67.00;;;;;;6183874;23;20372;-81
2023/08/14 13:43:03;;;;;;;2.85;1.55;;;29.30;67.60;;;;;;6205987;23;20398;-80
2023/08/14 13:45:30;;;;;;;2.72;1.70;;;29.30;67.70;;;;;;6233298;23;20454;-80
2023/08/14 13:47:58;;;;;;;3.35;1.58;;;29.30;65.40;;;;;;6206054;23;20455;-79
2023/08/14 13:50:27;;;;;;;1.70;1.45;;;29.30;67.20;;;;;;6205782;23;20035;-79
2023/08/14 13:52:58;;;;;;;2.30;1.80;;;29.40;66.00;;;;;;6208293;23;20020;-79
2023/08/14 13:55:30;;;;;;;1.98;1.65;;;29.40;65.80;;;;;;6204917;23;20119;-79
2023/08/14 13:57:58;;;;;;;4.50;1.80;;;29.30;66.50;;;;;;6204720;23;20424;-77
2023/08/14 14:00:26;;;;;;;2.15;1.33;;;29.30;66.00;;;;;;6196511;23;20016;-79
2023/08/14 14:02:59;;;;;;;2.70;1.98;;;29.30;65.70;;;;;;6202968;23;20028;-79
2023/08/14 14:05:27;;;;;;;1.52;1.42;;;29.40;67.70;;;;;;6206882;23;20028;-80
2023/08/14 14:07:55;;;;;;;2.50;1.90;;;29.40;66.90;;;;;;6206856;23;20048;-81
2023/08/14 14:10:25;;;;;;;6.18;1.90;;;29.40;67.40;;;;;;6207240;23;20032;-81
2023/08/14 14:12:52;;;;;;;1.77;1.63;;;29.40;67.50;;;;;;6182437;23;20523;-80
2023/08/14 14:15:22;;;;;;;2.85;1.70;;;29.30;68.20;;;;;;6205479;23;20115;-79
2023/08/14 14:17:50;;;;;;;2.47;1.63;;;29.30;67.30;;;;;;6183804;23;20043;-80
2023/08/14 14:20:17;;;;;;;2.63;1.60;;;29.20;66.80;;;;;;6205703;23;20028;-79
2023/08/14 14:22:44;;;;;;;1.67;1.58;;;29.10;67.30;;;;;;6206660;23;20028;-82
2023/08/14 14:25:12;;;;;;;1.70;1.42;;;29.10;65.90;;;;;;6181718;23;20027;-82
2023/08/14 14:27:40;;;;;;;4.05;1.95;;;29.10;67.10;;;;;;6210154;23;20030;-81
2023/08/14 14:30:08;;;;;;;2.80;1.60;;;29.10;66.70;;;;;;6183311;23;20090;-80
2023/08/14 14:32:35;;;;;;;4.40;2.08;;;29.00;67.40;;;;;;6197076;23;20027;-81
2023/08/14 14:35:03;;;;;;;1.67;1.58;;;29.00;67.00;;;;;;6200520;23;20021;-79
2023/08/14 14:37:30;;;;;;;2.58;2.08;;;29.10;67.60;;;;;;6206361;23;20027;-80
2023/08/14 14:39:57;;;;;;;2.97;1.60;;;29.10;68.70;;;;;;6207710;23;20062;-78
2023/08/14 14:42:25;;;;;;;1.92;1.55;;;29.10;68.80;;;;;;6208689;23;20031;-79
2023/08/14 14:44:53;;;;;;;2.90;1.52;;;29.20;67.80;;;;;;6181369;23;20511;-80
2023/08/14 14:47:24;;;;;;;2.67;1.75;;;29.30;67.20;;;;;;6181571;23;20020;-78
2023/08/14 14:49:51;;;;;;;3.45;2.20;;;29.10;67.60;;;;;;6182427;23;20031;-80
2023/08/14 14:52:19;;;;;;;2.92;1.83;;;29.10;67.90;;;;;;6205652;23;20143;-79
2023/08/14 14:54:46;;;;;;;1.80;1.50;;;29.10;67.40;;;;;;6181326;23;20027;-79
2023/08/14 14:57:13;;;;;;;1.75;1.65;;;29.10;67.90;;;;;;6207190;23;20046;-80
2023/08/14 14:59:41;;;;;;;1.75;1.55;;;29.10;68.10;;;;;;6206562;23;20022;-79
2023/08/14 15:02:09;;;;;;;4.47;2.00;;;29.10;68.30;;;;;;6178560;23;20026;-81
2023/08/14 15:04:54;;;;;;;2.72;1.90;;;29.00;69.10;;;;;;6186479;23;20024;-79
2023/08/14 15:07:22;;;;;;;3.25;2.20;;;29.00;68.60;;;;;;6204263;23;20415;-78
2023/08/14 15:09:49;;;;;;;3.20;2.00;;;29.00;68.40;;;;;;6203611;23;20032;-79
2023/08/14 15:12:16;;;;;;;3.97;1.85;;;28.90;68.50;;;;;;6178598;22;20102;-80
2023/08/14 15:14:43;;;;;;;3.22;1.50;;;28.90;68.50;;;;;;6207977;23;20440;-81
2023/08/14 15:17:10;;;;;;;2.10;1.90;;;28.80;69.40;;;;;;6202254;23;20024;-80
2023/08/14 15:19:39;;;;;;;2.60;1.50;;;28.80;69.50;;;;;;6206058;23;20020;-79
2023/08/14 15:22:06;;;;;;;2.10;1.73;;;28.90;70.00;;;;;;6204873;23;20028;-79
2023/08/14 15:24:35;;;;;;;2.28;1.98;;;28.90;69.50;;;;;;6194436;23;20078;-81
2023/08/14 15:27:02;;;;;;;3.70;1.85;;;28.80;69.30;;;;;;6205999;23;20451;-80
2023/08/14 15:29:29;;;;;;;3.72;1.90;;;28.80;68.60;;;;;;6206979;23;20273;-80
2023/08/14 15:31:56;;;;;;;2.00;1.60;;;28.80;68.70;;;;;;6181199;23;20341;-80
2023/08/14 15:34:23;;;;;;;3.63;1.50;;;28.80;69.10;;;;;;6206190;23;20063;-80
2023/08/14 15:36:50;;;;;;;2.42;1.80;;;28.70;68.50;;;;;;6206193;23;20436;-80
2023/08/14 15:39:18;;;;;;;2.78;1.83;;;28.70;69.30;;;;;;6204339;23;20355;-80
2023/08/14 15:41:45;;;;;;;3.28;1.60;;;28.70;68.80;;;;;;6205849;23;20471;-80
2023/08/14 15:44:12;;;;;;;3.85;1.95;;;28.70;68.90;;;;;;6204284;23;20020;-81
2023/08/14 15:46:39;;;;;;;2.45;1.77;;;28.60;68.70;;;;;;6181151;23;20024;-80
2023/08/14 15:49:07;;;;;;;2.42;1.65;;;28.60;68.70;;;;;;6206408;23;20416;-80
2023/08/14 15:51:34;;;;;;;1.45;1.35;;;28.80;68.70;;;;;;6206699;23;20115;-81
2023/08/14 15:54:02;;;;;;;2.35;1.75;;;28.70;67.80;;;;;;6208054;23;20119;-80
2023/08/14 15:56:29;;;;;;;3.97;1.85;;;28.70;68.10;;;;;;6184202;23;20044;-79
2023/08/14 15:58:56;;;;;;;3.80;1.67;;;28.70;68.50;;;;;;6204785;23;20047;-80
2023/08/14 16:01:24;;;;;;;2.20;1.55;;;28.60;68.50;;;;;;6206846;23;20444;-80